Alpena, MI

4:24 AM EDT on July 05, 2015 (GMT -0400)
APRSWXNET | | Change Station
CLOSE
Current Station
Personal Weather Station
Location: Alpena, MI
Elevation: 593 ft
Nearby Weather Stations

Elev 593 ft 45.05 °N, 83.45 °W | Updated 29 minutes ago

Clear
Clear
56 °F
Feels Like 56 °F
N
0
Wind Variable Wind from WNW
Gusts 1.0 mph

Today
High -- | Low -- °F
--% Chance of Precip.
Yesterday
High -- | Low -- °F
Precip. -- in
5:53 AM 9:23 PM
Waning Gibbous, 86% visible
Pressure 30.07 in
Visibility 8.0 miles
Clouds Clear
Dew Point 54 °F
Humidity 94%
Rainfall in
Snow Depth Not available.
UV 0 out of 12
Pollen 4.40 out of 12
Air Quality Not available.
Flu Activity Not available.
METAR KAPN 050754Z AUTO 00000KT 8SM CLR 11/09 A3007 RMK AO2 SLP183 T01110094

More Conditions Fewer Conditions

Pressure 30.07 in
Visibility 8.0 miles
Clouds Clear
Dew Point 54 °F
Humidity 94%
Rainfall in
Snow Depth Not available.
UV 0 out of 12
Pollen 4.40 out of 12
Air Quality Not available.
Flu Activity Not available.
METAR KAPN 050754Z AUTO 00000KT 8SM CLR 11/09 A3007 RMK AO2 SLP183 T01110094

More Conditions Fewer Conditions

Nowcast | as of 4:00 am EDT on July 5, 2015

At 5 am...mostly clear. Patchy fog. Temperature 57. Light winds. At 7 am...mostly clear. Patchy fog. Temperature 58. Light winds. At 9 am...mostly clear. Temperature 65. Light winds. At 11 am...mostly clear. Temperature 75. South winds 6 mph.

×

10-Day Weather Forecast

×

Almanac

Astronomy

Jul. 05, 2015 Rise Set
Actual Time
Civil Twilight
Nautical Twilight
Astronomical Twilight
Moon
Length of Visible Light
Length of Day
Tomorrow will be .
, % of the Moon is Illuminated

Today's Extremes

State Highs State Lows

Community

WunderPhotos

Upload Photos

1,835,219 photos uploaded!

WunderBlogs® & News

Nearby

Air Quality

  Air Quality AQ Index Pollutant
Not available.

Snow Depth

Station Depth Elevation

Earthquake Activity

City Distance Mag. Time & Date
Minimum magnitude displayed is 2.5.

Coastal Water Temperatures

Place Temperature

Stations

Nearby Weather Stations

Station Location Temp. Windchill Dew Point Humidity Wind Precip. Elev Updated Type